createdAt,value
2022-08-19T00:01:10.713Z,18.47
2022-08-19T00:06:13.800Z,18.23
2022-08-19T00:11:25.458Z,17.60
2022-08-19T00:16:30.560Z,18.20
2022-08-19T00:21:33.787Z,19.50
2022-08-19T00:26:37.993Z,25.17
2022-08-19T00:31:44.356Z,18.90
2022-08-19T00:36:47.792Z,19.30
2022-08-19T00:41:52.090Z,20.37
2022-08-19T00:46:59.954Z,19.30
2022-08-19T00:52:09.484Z,20.43
2022-08-19T00:57:17.688Z,20.27
2022-08-19T01:02:22.260Z,21.00
2022-08-19T01:07:26.748Z,21.20
2022-08-19T01:12:31.887Z,21.30
2022-08-19T01:17:38.498Z,21.27
2022-08-19T01:22:47.230Z,20.57
2022-08-19T01:27:53.386Z,20.90
2022-08-19T01:32:57.221Z,21.27
2022-08-19T01:38:09.350Z,21.87
2022-08-19T01:43:12.561Z,20.80
2022-08-19T01:48:16.528Z,21.03
2022-08-19T01:53:20.989Z,21.17
2022-08-19T01:58:33.487Z,21.20
2022-08-19T02:03:36.748Z,21.90
2022-08-19T02:08:41.931Z,22.00
2022-08-19T02:13:45.067Z,24.20
2022-08-19T02:18:49.617Z,20.60
2022-08-19T02:23:54.685Z,21.20
2022-08-19T02:28:58.244Z,21.73
2022-08-19T02:34:03.202Z,22.73
2022-08-19T02:39:07.675Z,20.20
2022-08-19T02:44:29.448Z,21.90
2022-08-19T02:49:34.678Z,22.53
2022-08-19T02:54:39.608Z,22.53
2022-08-19T02:59:42.667Z,21.13
2022-08-19T03:04:45.778Z,23.07
2022-08-19T03:09:50.296Z,23.23
2022-08-19T03:14:53.833Z,24.97
2022-08-19T03:19:56.895Z,26.23
2022-08-19T03:25:01.756Z,25.60
2022-08-19T03:30:06.137Z,24.50
2022-08-19T03:35:10.137Z,24.77
2022-08-19T03:40:14.651Z,24.60
2022-08-19T03:45:20.586Z,22.17
2022-08-19T03:50:23.704Z,22.37
2022-08-19T03:55:28.177Z,22.80
2022-08-19T04:00:31.269Z,22.53
2022-08-19T04:05:34.365Z,22.10
2022-08-19T04:10:39.381Z,22.10
2022-08-19T04:15:43.110Z,23.70
2022-08-19T04:20:50.199Z,21.93
2022-08-19T04:25:54.653Z,24.20
2022-08-19T04:30:58.487Z,25.20
2022-08-19T04:36:01.571Z,22.03
2022-08-19T04:41:23.595Z,24.20
2022-08-19T04:46:39.560Z,23.40
2022-08-19T04:51:45.391Z,23.03
2022-08-19T04:56:50.928Z,22.20
2022-08-19T05:01:53.981Z,24.30
2022-08-19T05:07:00.913Z,24.07
2022-08-19T05:12:06.898Z,23.87
2022-08-19T05:22:36.695Z,22.80
2022-08-19T05:27:41.271Z,23.83
2022-08-19T05:32:44.937Z,22.57
2022-08-19T05:37:47.997Z,22.00
2022-08-19T05:42:55.204Z,21.07
2022-08-19T05:47:59.330Z,20.10
2022-08-19T05:53:02.439Z,20.77
2022-08-19T05:58:08.658Z,17.67
2022-08-19T06:03:12.878Z,16.70
2022-08-19T06:08:19.488Z,15.93
2022-08-19T06:13:26.817Z,15.43
2022-08-19T06:18:36.350Z,14.13
2022-08-19T06:23:39.985Z,13.50
2022-08-19T06:28:47.559Z,13.77
2022-08-19T06:33:51.503Z,13.23
2022-08-19T06:38:55.674Z,12.03
2022-08-19T06:44:00.161Z,13.30
2022-08-19T06:49:03.866Z,12.47
2022-08-19T06:54:19.466Z,14.70
2022-08-19T06:59:28.194Z,15.60
2022-08-19T07:04:33.399Z,18.23
2022-08-19T07:09:38.531Z,18.27
2022-08-19T07:14:43.776Z,17.00
2022-08-19T07:19:46.879Z,18.37
2022-08-19T07:24:51.155Z,17.30
2022-08-19T07:29:57.627Z,18.50
2022-08-19T07:35:04.443Z,18.43
2022-08-19T07:40:09.272Z,17.57
2022-08-19T07:45:13.972Z,16.87
2022-08-19T07:50:19.051Z,18.77
2022-08-19T07:55:41.944Z,18.00
2022-08-19T08:00:50.137Z,17.50
2022-08-19T08:06:22.130Z,18.57
2022-08-19T08:11:25.217Z,18.67
2022-08-19T08:16:39.714Z,19.20
2022-08-19T08:21:51.009Z,19.30
2022-08-19T08:26:57.602Z,19.00
2022-08-19T08:32:02.573Z,18.07
2022-08-19T08:37:05.871Z,19.80
2022-08-19T08:42:16.803Z,20.33
2022-08-19T08:47:23.910Z,16.93
2022-08-19T08:52:32.132Z,17.70
2022-08-19T08:57:42.475Z,18.57
2022-08-19T09:02:50.581Z,17.10
2022-08-19T09:08:02.805Z,15.80
2022-08-19T09:13:14.431Z,13.83
2022-08-19T09:18:19.804Z,13.67
2022-08-19T09:23:26.675Z,12.70
2022-08-19T09:28:30.315Z,12.53
2022-08-19T09:33:36.968Z,13.93
2022-08-19T09:38:43.688Z,12.73
2022-08-19T09:43:50.258Z,13.90
2022-08-19T09:48:55.771Z,14.95
2022-08-19T09:54:02.373Z,14.73
2022-08-19T09:59:08.292Z,13.83
2022-08-19T10:04:19.819Z,11.50
2022-08-19T10:09:33.848Z,12.00
2022-08-19T10:14:37.690Z,10.17
2022-08-19T10:19:43.789Z,9.67
2022-08-19T10:24:58.403Z,10.00
2022-08-19T10:30:02.291Z,9.20
2022-08-19T10:35:09.306Z,12.67
2022-08-19T10:40:13.086Z,8.70
2022-08-19T10:45:16.193Z,8.00
2022-08-19T10:50:38.362Z,6.60
2022-08-19T10:55:59.801Z,5.93
2022-08-19T11:01:03.155Z,5.37
2022-08-19T11:06:09.829Z,5.88
2022-08-19T11:11:13.443Z,5.97
2022-08-19T11:16:19.851Z,6.28
2022-08-19T11:21:26.722Z,5.72
2022-08-19T11:26:31.489Z,8.10
2022-08-19T11:31:38.213Z,7.03
2022-08-19T11:36:45.847Z,8.30
2022-08-19T11:41:50.125Z,7.65
2022-08-19T11:46:53.621Z,8.40
2022-08-19T11:51:59.347Z,13.02
2022-08-19T11:57:04.408Z,14.90
2022-08-19T12:02:07.995Z,13.98
2022-08-19T12:07:12.527Z,13.50
2022-08-19T12:12:16.447Z,13.82
2022-08-19T12:17:19.907Z,17.20
2022-08-19T12:22:24.715Z,17.60
2022-08-19T12:27:40.020Z,21.03
2022-08-19T12:32:44.497Z,19.63
2022-08-19T12:37:56.630Z,20.13
2022-08-19T12:43:01.297Z,21.67
2022-08-19T12:48:32.957Z,20.57
2022-08-19T12:53:30.125Z,20.70
2022-08-19T12:58:35.462Z,22.97
2022-08-19T13:03:40.738Z,23.60
2022-08-19T13:08:45.248Z,19.57
2022-08-19T13:13:52.080Z,25.90
2022-08-19T13:18:56.847Z,24.07
2022-08-19T13:24:01.451Z,23.13
2022-08-19T13:29:21.993Z,24.27
2022-08-19T13:34:31.272Z,21.67
2022-08-19T13:39:36.819Z,25.60
2022-08-19T13:44:39.972Z,27.50
2022-08-19T13:49:44.546Z,27.90
2022-08-19T13:54:49.546Z,30.60
2022-08-19T13:59:52.607Z,30.30
2022-08-19T14:04:55.745Z,31.40
2022-08-19T14:10:03.743Z,29.00
2022-08-19T14:15:08.904Z,28.77
2022-08-19T14:20:17.734Z,29.50
2022-08-19T14:25:27.624Z,29.40
2022-08-19T14:30:33.271Z,27.93
2022-08-19T14:35:36.689Z,25.70
2022-08-19T14:40:43.017Z,27.10
2022-08-19T14:45:46.332Z,28.02
2022-08-19T14:50:50.090Z,30.93
2022-08-19T14:55:54.608Z,30.57
2022-08-19T15:00:58.612Z,30.43
2022-08-19T15:06:02.970Z,29.33
2022-08-19T15:11:11.673Z,27.47
2022-08-19T15:16:18.064Z,26.67
2022-08-19T15:21:26.855Z,26.07
2022-08-19T15:26:33.455Z,25.95
2022-08-19T15:31:38.151Z,25.20
2022-08-19T15:36:41.893Z,24.60
2022-08-19T15:41:46.786Z,26.90
2022-08-19T15:46:50.765Z,26.40
2022-08-19T15:51:54.244Z,26.27
2022-08-19T15:57:16.095Z,26.70
2022-08-19T16:02:38.950Z,25.70
2022-08-19T16:07:42.024Z,25.13
2022-08-19T16:12:46.583Z,25.30
2022-08-19T16:17:56.671Z,24.27
2022-08-19T16:23:01.016Z,22.93
2022-08-19T16:28:06.652Z,23.35
2022-08-19T16:33:11.340Z,25.43
2022-08-19T16:38:14.615Z,24.10
2022-08-19T16:43:19.716Z,22.20
2022-08-19T16:48:23.927Z,22.40
2022-08-19T16:53:29.314Z,20.40
2022-08-19T16:58:37.021Z,23.10
2022-08-19T17:03:40.627Z,24.60
2022-08-19T17:08:46.875Z,24.13
2022-08-19T17:13:53.788Z,24.57
2022-08-19T17:18:59.021Z,22.40
2022-08-19T17:24:03.460Z,22.90
2022-08-19T17:29:08.104Z,24.67
2022-08-19T17:34:11.168Z,22.53
2022-08-19T17:39:14.294Z,21.10
2022-08-19T17:44:19.083Z,23.87
2022-08-19T17:49:22.258Z,20.80
2022-08-19T17:54:25.440Z,22.00
2022-08-19T17:59:39.050Z,21.10
2022-08-19T18:04:45.509Z,21.50
2022-08-19T18:09:52.900Z,21.47
2022-08-19T18:14:59.246Z,20.00
2022-08-19T18:20:02.415Z,20.13
2022-08-19T18:25:08.810Z,21.37
2022-08-19T18:30:14.200Z,23.53
2022-08-19T18:35:20.744Z,22.60
2022-08-19T18:40:43.638Z,24.37
2022-08-19T18:46:07.235Z,23.00
2022-08-19T18:51:11.171Z,23.67
2022-08-19T18:56:16.890Z,23.57
2022-08-19T19:01:26.157Z,24.20
2022-08-19T19:06:35.908Z,23.60
2022-08-19T19:11:44.030Z,23.77
2022-08-19T19:16:48.582Z,28.17
2022-08-19T19:21:53.186Z,27.23
2022-08-19T19:26:57.583Z,27.87
2022-08-19T19:32:02.217Z,25.93
2022-08-19T19:37:05.438Z,26.13
2022-08-19T19:42:12.620Z,26.80
2022-08-19T19:47:25.726Z,27.60
2022-08-19T19:52:28.958Z,25.37
2022-08-19T19:57:32.075Z,25.70
2022-08-19T20:02:36.631Z,25.97
2022-08-19T20:07:53.942Z,24.90
2022-08-19T20:12:57.323Z,24.70
2022-08-19T20:18:02.459Z,24.33
2022-08-19T20:23:06.477Z,24.40
2022-08-19T20:28:10.772Z,25.90
2022-08-19T20:33:16.990Z,24.53
2022-08-19T20:38:20.084Z,22.77
2022-08-19T20:43:23.287Z,20.47
2022-08-19T20:48:27.909Z,20.50
2022-08-19T20:53:31.322Z,20.50
2022-08-19T20:58:35.726Z,22.27
2022-08-19T21:03:43.149Z,23.70
2022-08-19T21:08:47.030Z,21.97
2022-08-19T21:13:52.245Z,22.30
2022-08-19T21:18:57.204Z,19.87
2022-08-19T21:24:00.337Z,21.80
2022-08-19T21:29:03.452Z,22.00
2022-08-19T21:34:07.980Z,19.37
2022-08-19T21:39:11.151Z,21.43
2022-08-19T21:44:14.263Z,21.57
2022-08-19T21:49:19.760Z,20.67
2022-08-19T21:54:22.836Z,20.63
2022-08-19T21:59:26.049Z,20.00
2022-08-19T22:04:30.535Z,18.93
2022-08-19T22:09:33.696Z,21.80
2022-08-19T22:14:37.356Z,19.50
2022-08-19T22:19:41.862Z,18.47
2022-08-19T22:24:44.957Z,20.93
2022-08-19T22:29:48.099Z,20.50
2022-08-19T22:34:59.177Z,23.00
2022-08-19T22:40:05.475Z,20.13
2022-08-19T22:45:11.623Z,19.83
2022-08-19T22:50:16.087Z,21.40
2022-08-19T22:55:19.175Z,20.70
2022-08-19T23:00:24.607Z,21.60
2022-08-19T23:05:30.418Z,20.90
2022-08-19T23:10:34.633Z,23.33
2022-08-19T23:15:38.124Z,21.43
2022-08-19T23:20:44.802Z,21.80
2022-08-19T23:25:48.373Z,21.30
2022-08-19T23:30:53.749Z,21.53
2022-08-19T23:36:00.115Z,20.10
2022-08-19T23:41:05.690Z,20.03
2022-08-19T23:46:10.637Z,22.00
2022-08-19T23:51:17.613Z,21.43
2022-08-19T23:56:21.567Z,23.70
